Time;durP1;ratioP1;P1;durP2;ratioP2;P2;SDS_P1;SDS_P2;PMS_P1;PMS_P2;Temp;Humidity;BMP_temperature;BMP_pressure;BME280_temperature;BME280_humidity;BME280_pressure;Samples;Min_cycle;Max_cycle;Signal;HPM_P1;HPM_P2
2022/08/17 00:00:34;;;;;;;18.33;13.00;;;19.70;99.90;;;;;;5005708;28;20041;-74
2022/08/17 00:03:17;;;;;;;15.82;12.07;;;19.70;99.90;;;;;;4990526;28;20038;-75
2022/08/17 00:05:49;;;;;;;15.55;11.65;;;19.70;99.90;;;;;;5006497;28;20038;-74
2022/08/17 00:08:18;;;;;;;16.70;12.75;;;19.70;99.90;;;;;;5006295;28;20507;-75
2022/08/17 00:10:45;;;;;;;16.83;12.95;;;19.60;99.90;;;;;;5008014;28;20042;-75
2022/08/17 00:13:20;;;;;;;16.23;13.20;;;19.60;99.90;;;;;;5006694;28;20068;-74
2022/08/17 00:15:46;;;;;;;19.33;13.60;;;19.60;99.90;;;;;;5007452;28;20377;-75
2022/08/17 00:18:12;;;;;;;19.00;15.50;;;19.60;99.90;;;;;;5007152;28;20528;-75
2022/08/17 00:20:38;;;;;;;18.02;13.73;;;19.60;99.90;;;;;;5005843;28;20048;-75
2022/08/17 00:23:16;;;;;;;18.50;14.77;;;19.60;99.90;;;;;;5006920;28;20045;-75
2022/08/17 00:25:43;;;;;;;20.27;15.73;;;19.50;99.90;;;;;;5004173;28;20038;-75
2022/08/17 00:28:09;;;;;;;20.30;16.25;;;19.50;99.90;;;;;;5007181;28;20033;-74
2022/08/17 00:30:35;;;;;;;19.98;15.50;;;19.40;99.90;;;;;;5003141;28;20050;-75
2022/08/17 00:33:09;;;;;;;19.42;14.75;;;19.40;99.90;;;;;;5023995;28;20053;-74
2022/08/17 00:35:35;;;;;;;56.47;15.38;;;19.40;99.90;;;;;;5021066;28;20475;-75
2022/08/17 00:38:02;;;;;;;31.30;14.60;;;19.40;99.90;;;;;;5006555;28;20478;-76
2022/08/17 00:40:28;;;;;;;18.98;13.88;;;19.40;99.90;;;;;;5023513;28;20037;-75
2022/08/17 00:42:55;;;;;;;18.42;13.52;;;19.30;99.90;;;;;;4974026;28;20115;-75
2022/08/17 00:45:21;;;;;;;19.15;13.30;;;19.30;99.90;;;;;;5004829;28;20681;-74
2022/08/17 00:47:49;;;;;;;16.02;11.95;;;19.20;99.90;;;;;;5008216;28;20068;-75
2022/08/17 00:50:19;;;;;;;15.85;11.50;;;19.20;99.90;;;;;;5006742;28;20563;-75
2022/08/17 00:52:55;;;;;;;14.45;11.20;;;19.20;99.90;;;;;;5021529;28;20056;-75
2022/08/17 00:55:22;;;;;;;13.65;10.43;;;19.10;99.90;;;;;;4990748;28;20038;-75
2022/08/17 00:57:54;;;;;;;13.23;10.43;;;19.10;99.90;;;;;;5007239;28;20049;-74
2022/08/17 01:00:42;;;;;;;13.48;9.60;;;19.10;99.90;;;;;;4987002;28;21556;-75
2022/08/17 01:03:12;;;;;;;14.55;10.43;;;19.00;99.90;;;;;;4991715;28;20041;-75
2022/08/17 01:05:40;;;;;;;13.70;9.13;;;19.00;99.90;;;;;;5006100;28;20041;-75
2022/08/17 01:08:12;;;;;;;14.65;10.40;;;18.90;99.90;;;;;;4988907;28;20435;-75
2022/08/17 01:10:45;;;;;;;16.83;10.82;;;18.90;99.90;;;;;;5006410;28;20038;-74
2022/08/17 01:13:12;;;;;;;17.50;12.05;;;18.90;99.90;;;;;;5007519;28;20125;-75
2022/08/17 01:15:44;;;;;;;18.13;12.30;;;18.80;99.90;;;;;;5038409;28;20048;-74
2022/08/17 01:18:13;;;;;;;16.45;11.93;;;18.80;99.90;;;;;;5035216;28;20539;-75
2022/08/17 01:20:51;;;;;;;18.05;12.43;;;18.80;99.90;;;;;;4991372;28;20050;-75
2022/08/17 01:23:19;;;;;;;20.92;14.20;;;19.10;99.90;;;;;;5021213;28;20489;-74
2022/08/17 01:25:50;;;;;;;21.77;14.38;;;18.70;99.90;;;;;;4989282;28;20037;-74
2022/08/17 01:28:16;;;;;;;18.75;13.48;;;18.70;99.90;;;;;;5006073;28;20081;-75
2022/08/17 01:30:42;;;;;;;21.90;12.85;;;18.70;99.90;;;;;;5006238;28;20076;-75
2022/08/17 01:33:10;;;;;;;22.00;13.95;;;18.70;99.90;;;;;;4991055;28;20069;-75
2022/08/17 01:35:39;;;;;;;19.38;14.57;;;18.70;99.90;;;;;;5005803;28;20660;-74
2022/08/17 01:38:08;;;;;;;19.95;14.00;;;18.70;99.90;;;;;;4974288;28;20046;-75
2022/08/17 01:40:48;;;;;;;29.92;14.57;;;18.70;99.90;;;;;;5002419;28;20052;-75
2022/08/17 01:43:22;;;;;;;50.85;15.45;;;18.60;99.90;;;;;;4989601;28;20509;-75
2022/08/17 01:45:52;;;;;;;19.25;13.95;;;18.70;99.90;;;;;;5008667;28;20108;-75
2022/08/17 01:48:19;;;;;;;154.98;19.83;;;18.70;99.90;;;;;;5004957;28;20046;-75
2022/08/17 01:50:47;;;;;;;25.63;16.55;;;18.70;99.90;;;;;;4985165;28;20273;-74
2022/08/17 01:53:22;;;;;;;30.48;16.40;;;18.70;99.90;;;;;;5007381;28;20121;-75
2022/08/17 01:55:53;;;;;;;34.15;16.42;;;18.60;99.90;;;;;;5008205;28;20042;-75
2022/08/17 01:58:19;;;;;;;46.00;16.70;;;18.60;99.90;;;;;;4990224;28;20037;-75
2022/08/17 02:00:50;;;;;;;39.85;17.20;;;18.60;99.90;;;;;;5004726;28;20480;-74
2022/08/17 02:03:20;;;;;;;51.00;16.45;;;18.60;99.90;;;;;;5007452;28;20069;-75
2022/08/17 02:05:50;;;;;;;35.13;14.93;;;18.50;99.90;;;;;;5003868;28;20038;-73
2022/08/17 02:08:19;;;;;;;65.25;16.67;;;18.50;99.90;;;;;;5007330;28;20050;-74
2022/08/17 02:10:45;;;;;;;68.03;16.20;;;18.50;99.90;;;;;;5006344;28;20045;-75
2022/08/17 02:13:11;;;;;;;76.72;16.02;;;18.40;99.90;;;;;;5003957;28;20479;-75
2022/08/17 02:15:37;;;;;;;117.70;16.65;;;18.30;99.90;;;;;;5008430;28;20117;-75
2022/08/17 02:18:04;;;;;;;63.72;13.13;;;18.30;99.90;;;;;;4988068;28;20037;-73
2022/08/17 02:20:31;;;;;;;97.15;14.52;;;18.30;99.90;;;;;;5006838;28;20423;-74
2022/08/17 02:23:00;;;;;;;110.03;15.15;;;18.30;99.90;;;;;;4988135;28;20310;-75
2022/08/17 02:25:29;;;;;;;43.80;13.18;;;18.20;99.90;;;;;;5002660;28;20042;-74
2022/08/17 02:27:54;;;;;;;44.65;13.05;;;18.20;99.90;;;;;;4991399;28;20065;-74
2022/08/17 02:30:20;;;;;;;88.13;15.35;;;18.20;99.90;;;;;;5005727;28;20803;-75
2022/08/17 02:32:46;;;;;;;26.30;13.90;;;18.20;99.90;;;;;;5005987;28;20404;-74
2022/08/17 02:35:13;;;;;;;65.88;14.57;;;18.20;99.90;;;;;;5005104;28;20451;-75
2022/08/17 02:37:41;;;;;;;17.50;13.63;;;18.30;99.90;;;;;;4990382;28;20053;-75
2022/08/17 02:40:09;;;;;;;100.40;17.15;;;18.30;99.90;;;;;;4990256;28;20120;-74
2022/08/17 02:42:38;;;;;;;176.88;19.42;;;18.30;99.90;;;;;;4987137;28;20033;-74
2022/08/17 02:45:09;;;;;;;98.15;15.27;;;18.30;99.90;;;;;;4990428;28;20045;-74
2022/08/17 02:47:37;;;;;;;59.17;13.85;;;18.20;99.90;;;;;;5006299;28;20112;-74
2022/08/17 02:50:05;;;;;;;74.88;14.38;;;18.20;99.90;;;;;;5008260;28;20042;-75
2022/08/17 02:52:36;;;;;;;47.15;13.85;;;18.10;99.90;;;;;;5036570;28;20072;-75
2022/08/17 02:55:38;;;;;;;28.70;13.10;;;18.10;99.90;;;;;;5007227;28;20512;-76
2022/08/17 02:58:05;;;;;;;26.08;13.43;;;18.10;99.90;;;;;;5026452;28;20054;-75
2022/08/17 03:00:39;;;;;;;40.25;13.55;;;18.10;99.90;;;;;;5006212;28;20037;-74
2022/08/17 03:03:06;;;;;;;62.42;14.88;;;18.10;99.90;;;;;;5006149;28;20064;-75
2022/08/17 03:05:34;;;;;;;76.68;14.38;;;18.00;99.90;;;;;;4989880;28;20120;-75
2022/08/17 03:08:02;;;;;;;39.45;14.07;;;18.00;99.90;;;;;;5006453;28;20496;-75
2022/08/17 03:10:28;;;;;;;32.35;13.18;;;18.00;99.90;;;;;;5004598;28;20046;-75
2022/08/17 03:12:54;;;;;;;41.33;14.27;;;18.00;99.90;;;;;;5000541;28;20042;-75
2022/08/17 03:15:24;;;;;;;39.67;13.38;;;18.00;99.90;;;;;;4983249;28;20037;-75
2022/08/17 03:17:51;;;;;;;45.75;14.15;;;17.90;99.90;;;;;;5005940;28;20037;-74
2022/08/17 03:20:18;;;;;;;23.10;13.48;;;17.90;99.90;;;;;;4988467;28;20526;-75
2022/08/17 03:22:48;;;;;;;17.13;13.15;;;17.90;99.90;;;;;;5004336;28;20043;-75
2022/08/17 03:25:21;;;;;;;20.67;14.07;;;17.90;99.90;;;;;;5004862;28;20034;-75
2022/08/17 03:27:47;;;;;;;20.13;13.48;;;17.90;99.90;;;;;;4988315;28;20118;-75
2022/08/17 03:30:13;;;;;;;31.30;14.77;;;17.90;99.90;;;;;;5021927;28;20225;-75
2022/08/17 03:32:45;;;;;;;21.92;14.65;;;17.90;99.90;;;;;;5004179;28;20520;-75
2022/08/17 03:35:14;;;;;;;23.58;14.75;;;17.90;99.90;;;;;;5006626;28;20048;-74
2022/08/17 03:37:43;;;;;;;18.10;15.43;;;17.90;99.90;;;;;;5006374;28;20085;-75
2022/08/17 03:40:09;;;;;;;18.23;15.00;;;17.80;99.90;;;;;;5008479;28;20052;-74
2022/08/17 03:42:39;;;;;;;23.42;14.07;;;17.90;99.90;;;;;;4990464;28;20082;-75
2022/08/17 03:45:11;;;;;;;22.05;13.32;;;17.90;99.90;;;;;;5009568;28;20061;-75
2022/08/17 03:58:46;;;;;;;19.15;14.70;;;18.40;99.90;;;;;;5007379;28;20057;-75
2022/08/17 04:01:12;;;;;;;22.73;14.88;;;17.90;99.90;;;;;;4993021;28;20046;-75
2022/08/17 04:03:38;;;;;;;19.58;14.57;;;17.90;99.90;;;;;;5005763;28;20034;-74
2022/08/17 04:06:05;;;;;;;22.40;14.60;;;17.90;99.90;;;;;;5009225;28;20033;-74
2022/08/17 04:08:31;;;;;;;22.00;15.77;;;17.90;99.90;;;;;;5009483;28;20049;-76
2022/08/17 04:10:59;;;;;;;19.50;13.95;;;18.00;99.90;;;;;;4992701;28;20580;-75
2022/08/17 04:13:24;;;;;;;20.27;14.05;;;17.90;99.90;;;;;;5019472;28;20484;-74
2022/08/17 04:15:50;;;;;;;35.83;14.55;;;17.90;99.90;;;;;;5008525;28;20041;-75
2022/08/17 04:18:17;;;;;;;17.05;13.32;;;17.90;99.90;;;;;;4992646;28;20034;-75
2022/08/17 04:20:45;;;;;;;20.95;14.00;;;17.80;99.90;;;;;;5006062;28;20492;-76
2022/08/17 04:23:14;;;;;;;15.57;11.73;;;17.80;99.90;;;;;;5038868;28;20614;-75
2022/08/17 04:25:47;;;;;;;76.90;14.15;;;17.80;99.90;;;;;;5007237;28;20041;-75
2022/08/17 04:28:13;;;;;;;69.38;14.23;;;16.80;99.90;;;;;;5041284;28;20116;-74
2022/08/17 04:30:43;;;;;;;28.58;12.82;;;17.70;99.90;;;;;;4991862;28;20042;-75
2022/08/17 04:33:22;;;;;;;75.65;14.05;;;17.70;99.90;;;;;;5008643;28;20040;-75
2022/08/17 04:35:52;;;;;;;64.18;13.27;;;17.70;99.90;;;;;;5004495;28;20070;-76
2022/08/17 04:38:25;;;;;;;34.00;13.88;;;17.60;99.90;;;;;;5006121;28;20060;-75
2022/08/17 04:43:38;;;;;;;52.00;14.77;;;17.70;99.90;;;;;;5024758;28;20493;-75
2022/08/17 04:46:07;;;;;;;41.63;14.77;;;18.40;99.90;;;;;;5006149;28;20042;-75
2022/08/17 04:48:45;;;;;;;107.30;15.98;;;17.60;99.90;;;;;;4991767;28;20034;-75
2022/08/17 04:51:27;;;;;;;51.60;14.70;;;17.70;99.90;;;;;;5005453;28;20508;-75
2022/08/17 04:53:56;;;;;;;58.30;14.65;;;17.70;99.90;;;;;;5002292;28;20044;-74
2022/08/17 04:56:24;;;;;;;44.70;14.23;;;17.70;99.90;;;;;;5007034;28;20034;-75
2022/08/17 04:58:56;;;;;;;22.65;12.55;;;17.80;99.90;;;;;;4991137;28;20071;-74
2022/08/17 05:01:24;;;;;;;27.50;12.85;;;17.80;99.90;;;;;;4991489;28;20082;-76
2022/08/17 05:03:55;;;;;;;18.90;12.88;;;17.80;99.90;;;;;;5005890;28;20120;-75
2022/08/17 05:06:21;;;;;;;38.72;12.60;;;17.80;99.90;;;;;;5012784;28;20041;-75
2022/08/17 05:08:49;;;;;;;50.85;14.25;;;17.90;99.90;;;;;;5006085;28;20077;-75
2022/08/17 05:11:15;;;;;;;18.45;12.50;;;17.80;99.90;;;;;;5006583;28;20181;-75
2022/08/17 05:13:40;;;;;;;17.05;12.50;;;17.80;99.90;;;;;;5004758;28;20112;-75
2022/08/17 05:16:07;;;;;;;37.58;13.10;;;17.80;99.90;;;;;;5008625;28;20404;-75
2022/08/17 05:18:34;;;;;;;22.30;12.35;;;17.90;99.90;;;;;;5007459;28;20038;-74
2022/08/17 05:21:01;;;;;;;26.25;13.30;;;18.40;99.90;;;;;;5007616;28;20171;-76
2022/08/17 05:23:27;;;;;;;15.93;12.80;;;19.40;99.90;;;;;;5005229;28;20159;-75
2022/08/17 05:25:55;;;;;;;20.25;13.88;;;18.00;99.90;;;;;;5038628;28;20030;-74
2022/08/17 05:28:22;;;;;;;20.35;14.52;;;17.90;99.90;;;;;;4989496;28;20042;-75
2022/08/17 05:30:48;;;;;;;26.25;15.63;;;18.00;99.90;;;;;;5007821;28;20310;-75
2022/08/17 05:33:20;;;;;;;31.10;16.25;;;18.00;99.90;;;;;;5003836;28;20042;-75
2022/08/17 05:35:51;;;;;;;40.28;14.98;;;18.30;99.90;;;;;;5007901;28;20052;-75
2022/08/17 05:38:19;;;;;;;83.03;17.02;;;18.10;99.90;;;;;;5007203;28;20295;-75
2022/08/17 05:40:45;;;;;;;30.30;14.23;;;17.90;99.90;;;;;;5008513;28;20112;-74
2022/08/17 05:43:13;;;;;;;18.77;14.95;;;18.10;99.90;;;;;;5041254;28;20245;-76
2022/08/17 05:45:59;;;;;;;24.08;15.23;;;18.00;99.90;;;;;;5035916;28;20117;-74
2022/08/17 05:48:25;;;;;;;18.42;14.38;;;18.10;99.90;;;;;;5003557;28;20041;-75
2022/08/17 05:51:20;;;;;;;18.13;14.30;;;18.00;99.90;;;;;;4984407;28;20068;-75
2022/08/17 05:54:05;;;;;;;17.35;13.88;;;18.10;99.90;;;;;;5004610;28;20058;-75
2022/08/17 05:56:39;;;;;;;18.15;14.20;;;18.20;99.90;;;;;;5005139;28;20066;-75
2022/08/17 05:59:18;;;;;;;16.92;14.30;;;18.20;99.90;;;;;;5005898;28;20475;-76
2022/08/17 06:01:46;;;;;;;17.48;14.65;;;18.30;99.90;;;;;;5008278;28;20042;-75
2022/08/17 06:04:43;;;;;;;17.40;15.18;;;18.40;99.90;;;;;;5005570;28;20515;-76
2022/08/17 06:07:19;;;;;;;18.75;15.30;;;18.50;99.90;;;;;;5040504;28;20038;-76
2022/08/17 06:09:58;;;;;;;18.80;14.68;;;18.50;99.90;;;;;;5017367;28;20049;-76
2022/08/17 06:12:39;;;;;;;19.75;16.27;;;18.50;99.90;;;;;;5005359;28;20112;-76
2022/08/17 06:15:25;;;;;;;20.65;16.67;;;18.60;99.90;;;;;;5006441;28;20034;-75
2022/08/17 06:17:58;;;;;;;21.13;16.58;;;18.70;99.90;;;;;;5007088;28;20207;-76
2022/08/17 06:20:34;;;;;;;21.88;16.73;;;18.70;99.90;;;;;;5003591;28;20101;-76
2022/08/17 06:23:09;;;;;;;21.05;17.73;;;18.70;99.90;;;;;;5017717;28;20127;-75
2022/08/17 06:25:45;;;;;;;29.25;20.05;;;18.80;99.90;;;;;;5005227;28;20068;-75
2022/08/17 06:28:15;;;;;;;29.15;20.65;;;18.80;99.90;;;;;;5007175;28;20042;-76
2022/08/17 06:30:57;;;;;;;29.77;23.40;;;18.90;99.90;;;;;;5006190;28;20518;-76
2022/08/17 06:33:30;;;;;;;36.03;25.47;;;18.90;99.90;;;;;;4983877;28;20538;-77
2022/08/17 06:36:03;;;;;;;35.72;25.05;;;18.90;99.90;;;;;;4990825;28;20284;-77
2022/08/17 06:38:44;;;;;;;41.17;29.65;;;19.00;99.90;;;;;;5022991;28;20050;-76
2022/08/17 06:41:27;;;;;;;43.58;30.35;;;19.10;99.90;;;;;;4989748;28;20531;-75
2022/08/17 06:44:02;;;;;;;46.53;31.90;;;19.10;99.90;;;;;;5004769;28;20121;-76
2022/08/17 06:46:39;;;;;;;49.15;32.38;;;19.10;99.90;;;;;;4985806;28;20041;-76
2022/08/17 06:49:27;;;;;;;44.20;31.90;;;19.10;99.90;;;;;;5004662;28;20520;-76
2022/08/17 06:52:11;;;;;;;48.40;31.88;;;19.20;99.90;;;;;;5005564;28;20065;-77
2022/08/17 06:55:01;;;;;;;52.28;33.03;;;19.20;99.90;;;;;;5006385;28;20053;-75
2022/08/17 06:57:28;;;;;;;45.83;32.47;;;19.20;99.90;;;;;;5019131;28;20044;-75
2022/08/17 07:00:21;;;;;;;53.80;36.05;;;19.20;99.90;;;;;;4989204;28;20490;-76
2022/08/17 07:03:08;;;;;;;48.38;33.92;;;19.20;99.90;;;;;;5004657;28;20442;-77
2022/08/17 07:05:36;;;;;;;46.80;32.38;;;19.20;99.90;;;;;;5035525;28;20048;-76
2022/08/17 07:08:18;;;;;;;50.92;34.80;;;19.30;99.90;;;;;;4989574;28;20041;-76
2022/08/17 07:10:50;;;;;;;48.58;33.10;;;19.30;99.90;;;;;;5005943;28;20520;-76
2022/08/17 07:13:39;;;;;;;50.22;32.72;;;19.30;99.90;;;;;;5024520;28;20042;-77
2022/08/17 07:16:31;;;;;;;48.85;31.92;;;19.40;99.90;;;;;;4991472;28;20488;-77
2022/08/17 07:18:58;;;;;;;52.08;34.58;;;19.40;99.90;;;;;;5036111;28;20046;-76
2022/08/17 07:21:48;;;;;;;46.47;32.58;;;19.40;99.90;;;;;;5006748;28;20037;-76
2022/08/17 07:24:32;;;;;;;48.00;34.22;;;19.50;99.90;;;;;;5003392;28;20479;-76
2022/08/17 07:27:15;;;;;;;48.17;34.55;;;19.50;99.90;;;;;;5009313;28;20400;-76
2022/08/17 07:29:52;;;;;;;47.20;34.78;;;19.50;99.90;;;;;;5009181;28;20053;-78
2022/08/17 07:32:30;;;;;;;47.30;34.67;;;19.50;99.90;;;;;;4989181;28;20042;-77
2022/08/17 07:35:15;;;;;;;42.13;32.95;;;19.50;99.90;;;;;;5015202;28;20046;-77
2022/08/17 07:37:51;;;;;;;48.10;34.97;;;19.60;99.90;;;;;;5004942;28;20038;-77
2022/08/17 07:40:20;;;;;;;50.88;35.03;;;19.60;99.90;;;;;;5040533;28;20109;-78
2022/08/17 07:43:01;;;;;;;45.33;35.45;;;19.60;99.90;;;;;;5010020;28;20033;-77
2022/08/17 07:48:21;;;;;;;48.35;36.42;;;19.80;99.90;;;;;;5010110;28;20053;-78
2022/08/17 07:50:47;;;;;;;50.63;36.20;;;19.80;99.90;;;;;;5008505;28;20069;-77
2022/08/17 07:53:21;;;;;;;53.70;38.50;;;20.40;99.90;;;;;;4992968;28;20208;-77
2022/08/17 07:55:49;;;;;;;49.80;37.70;;;19.90;99.90;;;;;;5006484;28;20042;-78
2022/08/17 07:58:21;;;;;;;52.75;37.40;;;20.00;99.90;;;;;;5008522;28;20030;-77
2022/08/17 08:01:04;;;;;;;55.97;37.73;;;20.00;99.90;;;;;;5037830;28;20056;-77
2022/08/17 08:03:32;;;;;;;50.30;37.05;;;20.10;99.90;;;;;;5034177;28;20304;-78
2022/08/17 08:06:00;;;;;;;52.90;38.47;;;20.10;99.90;;;;;;4990962;28;20052;-76
2022/08/17 08:08:32;;;;;;;51.40;36.95;;;20.20;99.90;;;;;;4991643;28;20148;-77
2022/08/17 08:11:32;;;;;;;57.08;36.10;;;20.20;99.90;;;;;;5020666;28;20042;-76
2022/08/17 08:14:21;;;;;;;49.85;32.78;;;20.20;99.90;;;;;;5006072;28;20041;-77
2022/08/17 08:16:58;;;;;;;53.40;31.98;;;20.20;99.90;;;;;;5007583;28;20130;-77
2022/08/17 08:19:24;;;;;;;54.13;31.65;;;20.20;99.90;;;;;;5009459;28;20037;-77
2022/08/17 08:22:01;;;;;;;52.95;33.42;;;20.10;99.90;;;;;;5008304;28;20045;-77
2022/08/17 08:24:44;;;;;;;49.03;30.77;;;20.10;99.90;;;;;;4987289;28;20234;-76
2022/08/17 08:27:12;;;;;;;54.13;34.70;;;19.60;99.90;;;;;;5006401;28;20048;-76
2022/08/17 08:30:05;;;;;;;49.13;32.17;;;20.10;99.90;;;;;;5008844;28;20041;-76
2022/08/17 08:32:49;;;;;;;51.35;33.58;;;20.20;99.90;;;;;;5039768;28;20065;-77
2022/08/17 08:35:25;;;;;;;54.17;34.25;;;20.30;99.90;;;;;;4989097;28;20050;-76
2022/08/17 08:38:12;;;;;;;54.30;35.40;;;20.40;99.90;;;;;;5005385;28;20046;-76
2022/08/17 08:41:16;;;;;;;51.90;33.65;;;20.50;99.90;;;;;;5005964;28;20112;-76
2022/08/17 08:44:04;;;;;;;51.50;34.92;;;20.60;99.90;;;;;;5002647;28;20065;-76
2022/08/17 08:46:39;;;;;;;50.30;33.53;;;20.70;99.90;;;;;;4989189;28;20042;-75
2022/08/17 08:49:41;;;;;;;50.78;35.33;;;20.70;99.90;;;;;;5039489;28;20404;-76
2022/08/17 08:52:33;;;;;;;48.60;33.22;;;20.70;99.90;;;;;;4978693;28;20128;-77
2022/08/17 08:55:15;;;;;;;48.42;34.05;;;20.70;99.90;;;;;;5001767;28;20085;-76
2022/08/17 08:57:59;;;;;;;44.55;32.53;;;20.70;99.90;;;;;;5039338;28;20049;-76
2022/08/17 09:00:26;;;;;;;45.95;32.08;;;21.00;99.90;;;;;;4985652;28;20050;-76
2022/08/17 09:03:04;;;;;;;42.33;29.73;;;20.80;99.90;;;;;;4991295;28;20455;-77
2022/08/17 09:05:55;;;;;;;41.42;28.30;;;20.80;99.90;;;;;;5004948;28;20045;-77
2022/08/17 09:08:28;;;;;;;45.63;27.95;;;20.80;99.90;;;;;;5002297;28;20038;-77
2022/08/17 09:11:23;;;;;;;43.08;28.40;;;20.80;99.90;;;;;;4988681;28;20038;-76
2022/08/17 09:14:03;;;;;;;41.85;28.13;;;20.90;99.90;;;;;;5005791;28;20060;-76
2022/08/17 09:17:04;;;;;;;39.47;26.98;;;20.90;99.90;;;;;;5005770;28;20137;-75
2022/08/17 09:19:30;;;;;;;42.65;29.65;;;;;;;;;;4989344;28;20038;-76
2022/08/17 09:22:12;;;;;;;43.35;30.13;;;21.00;99.90;;;;;;5006729;28;20532;-76
2022/08/17 09:24:43;;;;;;;45.67;30.08;;;21.00;99.90;;;;;;5005663;28;20072;-76
2022/08/17 09:27:22;;;;;;;42.97;30.33;;;21.00;99.90;;;;;;5008581;28;20128;-77
2022/08/17 09:29:55;;;;;;;42.05;30.02;;;21.10;99.90;;;;;;5005268;28;20531;-77
2022/08/17 09:32:30;;;;;;;;;;;21.20;99.90;;;;;;5023557;28;20127;-75
2022/08/17 09:35:02;;;;;;;40.45;29.20;;;20.40;99.90;;;;;;5017829;28;20470;-76
2022/08/17 09:37:50;;;;;;;43.00;29.45;;;21.30;99.90;;;;;;5005741;28;20033;-76
2022/08/17 09:40:47;;;;;;;41.58;29.50;;;21.30;99.90;;;;;;5019093;28;20042;-75
2022/08/17 09:43:45;;;;;;;44.38;31.10;;;21.40;99.90;;;;;;5008379;28;20033;-75
2022/08/17 09:46:39;;;;;;;39.88;29.33;;;21.30;99.90;;;;;;4999447;28;20082;-77
2022/08/17 09:49:13;;;;;;;37.97;28.50;;;21.30;99.90;;;;;;4993283;28;20520;-76
2022/08/17 09:51:51;;;;;;;40.67;28.13;;;21.30;99.90;;;;;;5005431;28;20500;-75
2022/08/17 09:54:34;;;;;;;43.20;31.15;;;21.40;99.90;;;;;;5006342;28;21434;-75
2022/08/17 09:57:08;;;;;;;45.60;31.33;;;21.40;99.90;;;;;;4992158;28;20396;-76
2022/08/17 09:59:55;;;;;;;39.75;30.75;;;21.50;99.90;;;;;;5005715;28;20049;-76
2022/08/17 10:02:39;;;;;;;40.85;31.27;;;21.50;99.90;;;;;;5003332;28;20416;-76
2022/08/17 10:05:29;;;;;;;39.83;30.50;;;21.50;99.90;;;;;;5003901;28;20061;-75
2022/08/17 10:08:24;;;;;;;39.80;31.15;;;21.60;99.90;;;;;;5001242;28;20121;-75
2022/08/17 10:11:10;;;;;;;42.97;33.22;;;21.50;99.90;;;;;;5039822;28;20576;-76
2022/08/17 10:13:52;;;;;;;40.95;32.25;;;21.50;99.90;;;;;;5006496;28;20049;-76
2022/08/17 10:16:42;;;;;;;43.15;32.15;;;21.50;99.90;;;;;;5007114;28;20030;-75
2022/08/17 10:19:28;;;;;;;41.30;32.15;;;21.60;99.90;;;;;;5008397;28;20118;-75
2022/08/17 10:27:50;;;;;;;35.50;28.08;;;21.50;99.90;;;;;;5038771;28;20108;-75
2022/08/17 10:30:26;;;;;;;33.83;27.63;;;21.50;99.90;;;;;;5007169;28;20377;-75
2022/08/17 10:32:58;;;;;;;34.60;27.35;;;21.60;99.90;;;;;;5000472;28;20042;-77
2022/08/17 10:35:24;;;;;;;33.25;26.85;;;21.60;99.90;;;;;;4999693;28;20046;-76
2022/08/17 10:38:04;;;;;;;31.80;25.85;;;21.70;99.90;;;;;;5033174;28;20192;-76
2022/08/17 10:40:34;;;;;;;31.27;25.95;;;21.70;99.90;;;;;;4996415;28;20486;-76
2022/08/17 10:43:24;;;;;;;31.52;25.40;;;21.70;99.90;;;;;;4988379;28;20513;-75
2022/08/17 10:46:14;;;;;;;34.53;27.30;;;21.80;99.90;;;;;;5006536;28;20129;-75
2022/08/17 10:48:41;;;;;;;31.98;26.48;;;21.80;99.90;;;;;;5003375;28;20057;-77
2022/08/17 10:51:35;;;;;;;32.45;26.33;;;21.80;99.90;;;;;;5003586;28;20065;-76
2022/08/17 10:54:01;;;;;;;30.25;25.55;;;21.90;99.90;;;;;;4999343;28;20038;-76
2022/08/17 10:56:42;;;;;;;34.85;28.77;;;21.90;99.90;;;;;;4985140;28;20039;-76
2022/08/17 10:59:08;;;;;;;36.10;28.67;;;22.00;99.90;;;;;;5036779;28;20220;-75
2022/08/17 11:01:35;;;;;;;32.92;27.70;;;22.00;99.90;;;;;;5000749;28;20037;-76
2022/08/17 11:04:27;;;;;;;34.47;27.50;;;22.10;99.90;;;;;;5001284;28;20504;-76
2022/08/17 11:07:10;;;;;;;33.40;27.48;;;21.60;99.90;;;;;;4976699;28;20045;-75
2022/08/17 11:09:51;;;;;;;32.03;26.30;;;22.20;99.90;;;;;;5022438;28;20147;-77
2022/08/17 11:12:43;;;;;;;29.55;24.80;;;22.20;99.90;;;;;;5007330;28;20038;-75
2022/08/17 11:15:26;;;;;;;31.63;25.05;;;22.30;99.90;;;;;;4990284;28;20110;-76
2022/08/17 11:18:23;;;;;;;29.73;24.00;;;22.10;99.90;;;;;;5015614;28;20073;-76
2022/08/17 11:21:10;;;;;;;25.83;21.95;;;22.40;99.90;;;;;;4990562;28;20144;-75
2022/08/17 11:24:14;;;;;;;28.73;22.27;;;22.50;99.90;;;;;;5004322;28;20037;-76
2022/08/17 11:26:47;;;;;;;23.70;18.95;;;22.60;99.90;;;;;;5002912;28;20128;-78
2022/08/17 11:29:50;;;;;;;26.05;18.25;;;22.60;99.90;;;;;;5004956;28;20470;-77
2022/08/17 11:32:30;;;;;;;22.27;18.08;;;22.70;99.90;;;;;;5001861;28;20045;-76
2022/08/17 11:35:21;;;;;;;24.48;18.23;;;22.90;99.90;;;;;;4989125;28;20436;-76
2022/08/17 11:38:12;;;;;;;22.60;17.13;;;23.00;99.90;;;;;;4983339;28;20613;-76
2022/08/17 11:40:50;;;;;;;24.08;16.38;;;23.10;99.90;;;;;;5037055;28;20103;-76
2022/08/17 11:43:26;;;;;;;17.27;12.35;;;23.30;99.90;;;;;;5001283;28;20038;-76
2022/08/17 11:51:32;;;;;;;15.45;10.98;;;23.50;99.90;;;;;;5007652;28;20036;-76
2022/08/17 11:52:36;;;;;;;18.48;13.43;;;23.70;99.90;;;;;;5005427;28;20042;-75
2022/08/17 11:55:04;;;;;;;18.52;13.88;;;23.80;99.90;;;;;;5004499;28;20034;-76
2022/08/17 11:57:44;;;;;;;18.77;13.32;;;23.70;99.90;;;;;;4973693;28;20269;-76
2022/08/17 12:00:45;;;;;;;18.17;12.77;;;23.60;99.90;;;;;;5007826;28;20042;-75
2022/08/17 12:03:30;;;;;;;20.40;12.88;;;23.60;99.90;;;;;;5009705;28;20096;-76
2022/08/17 12:06:30;;;;;;;19.13;12.45;;;23.50;99.90;;;;;;5005073;28;20562;-77
2022/08/17 12:09:14;;;;;;;21.98;13.40;;;23.40;99.90;;;;;;5006856;28;20539;-75
2022/08/17 12:12:00;;;;;;;15.68;11.18;;;23.30;99.90;;;;;;5040131;28;20544;-75
2022/08/17 12:14:29;;;;;;;15.27;11.18;;;23.30;99.90;;;;;;5042188;28;20259;-77
2022/08/17 12:17:01;;;;;;;15.90;10.98;;;23.30;99.90;;;;;;5006380;28;20046;-76
2022/08/17 12:19:32;;;;;;;13.80;9.98;;;23.40;99.90;;;;;;5006153;28;20539;-76
2022/08/17 12:22:17;;;;;;;16.10;11.10;;;23.50;99.90;;;;;;5005010;28;20499;-76
2022/08/17 12:24:55;;;;;;;15.20;11.55;;;23.40;99.90;;;;;;5006175;28;20065;-76
2022/08/17 12:27:32;;;;;;;17.48;12.82;;;23.50;99.90;;;;;;5004069;28;20050;-75
2022/08/17 12:30:01;;;;;;;18.80;13.65;;;23.50;99.90;;;;;;5007890;28;20448;-76
2022/08/17 12:32:32;;;;;;;19.15;14.00;;;23.40;99.90;;;;;;5040674;28;20072;-76
2022/08/17 12:34:58;;;;;;;18.50;13.63;;;23.40;99.90;;;;;;5007927;28;20045;-76
2022/08/17 12:37:32;;;;;;;17.15;12.95;;;23.40;99.90;;;;;;4990011;28;20367;-76
2022/08/17 12:40:15;;;;;;;21.42;13.20;;;23.40;99.90;;;;;;5009251;28;20137;-76
2022/08/17 12:42:54;;;;;;;17.45;12.23;;;23.50;99.90;;;;;;4989445;28;20041;-76
2022/08/17 12:45:28;;;;;;;20.33;13.73;;;23.50;99.90;;;;;;5007005;28;20034;-76
2022/08/17 12:48:06;;;;;;;19.05;13.80;;;23.60;99.90;;;;;;4989443;28;20068;-77
2022/08/17 12:50:37;;;;;;;18.13;12.98;;;23.60;99.90;;;;;;5010283;28;20054;-75
2022/08/17 12:53:29;;;;;;;17.70;12.05;;;23.70;99.90;;;;;;5022701;28;20041;-75
2022/08/17 12:55:57;;;;;;;17.15;11.38;;;23.70;99.90;;;;;;5005709;28;20045;-76
2022/08/17 12:58:28;;;;;;;17.48;12.07;;;23.70;99.90;;;;;;5004661;28;21005;-76
2022/08/17 13:01:01;;;;;;;19.55;12.15;;;23.70;99.90;;;;;;4988003;28;20070;-76
2022/08/17 13:03:34;;;;;;;22.00;13.10;;;23.70;99.90;;;;;;5037708;28;20034;-75
2022/08/17 13:06:08;;;;;;;20.33;13.38;;;23.70;99.90;;;;;;5003284;28;20088;-76
2022/08/17 13:08:44;;;;;;;19.35;14.25;;;23.60;99.90;;;;;;5034791;28;20034;-75
2022/08/17 13:11:12;;;;;;;17.42;13.07;;;23.60;99.90;;;;;;5006873;28;20177;-76
2022/08/17 13:13:43;;;;;;;16.67;12.45;;;23.50;99.90;;;;;;5006429;28;20033;-75
2022/08/17 13:16:13;;;;;;;16.35;11.80;;;23.50;99.90;;;;;;4990713;28;20108;-76
2022/08/17 13:18:45;;;;;;;18.23;11.98;;;23.40;99.90;;;;;;5005217;28;20034;-75
2022/08/17 13:21:17;;;;;;;18.38;12.35;;;23.40;99.90;;;;;;5038660;28;20077;-74
2022/08/17 13:24:20;;;;;;;19.58;12.68;;;23.20;99.90;;;;;;5008428;28;20064;-76
2022/08/17 13:27:00;;;;;;;17.20;11.63;;;23.10;99.90;;;;;;4971491;28;20527;-75
2022/08/17 13:29:32;;;;;;;18.13;13.63;;;23.10;99.90;;;;;;5021009;28;20038;-76
2022/08/17 13:32:07;;;;;;;19.08;13.70;;;23.00;99.90;;;;;;5005398;28;20109;-75
2022/08/17 13:34:43;;;;;;;16.80;12.00;;;23.00;99.90;;;;;;5009766;28;20062;-75